createdAt,value
2023-10-06T00:01:41.688Z,17.40
2023-10-06T00:04:08.640Z,17.40
2023-10-06T00:06:38.879Z,17.30
2023-10-06T00:09:08.083Z,17.30
2023-10-06T00:11:35.272Z,17.30
2023-10-06T00:14:02.316Z,17.30
2023-10-06T00:16:34.751Z,17.20
2023-10-06T00:19:14.709Z,17.20
2023-10-06T00:21:48.431Z,17.10
2023-10-06T00:24:15.497Z,17.10
2023-10-06T00:26:44.125Z,17.10
2023-10-06T00:29:19.116Z,17.10
2023-10-06T00:31:49.071Z,17.10
2023-10-06T00:34:28.354Z,17.10
2023-10-06T00:36:57.250Z,17.10
2023-10-06T00:39:31.437Z,17.10
2023-10-06T00:42:05.688Z,17.10
2023-10-06T00:44:32.709Z,17.20
2023-10-06T00:47:00.629Z,17.20
2023-10-06T00:49:30.118Z,17.20
2023-10-06T00:51:57.104Z,17.20
2023-10-06T00:54:26.414Z,17.20
2023-10-06T00:56:59.117Z,17.20
2023-10-06T00:59:26.289Z,17.20
2023-10-06T01:01:54.002Z,17.20
2023-10-06T01:04:25.990Z,17.10
2023-10-06T01:06:55.774Z,17.20
2023-10-06T01:09:31.562Z,17.20
2023-10-06T01:11:58.576Z,17.20
2023-10-06T01:14:28.694Z,17.20
2023-10-06T01:17:04.344Z,17.20
2023-10-06T01:19:34.773Z,17.20
2023-10-06T01:22:28.122Z,17.20
2023-10-06T01:24:55.481Z,17.20
2023-10-06T01:27:27.183Z,17.10
2023-10-06T01:30:14.498Z,17.10
2023-10-06T01:32:47.747Z,17.10
2023-10-06T01:35:16.584Z,17.20
2023-10-06T01:37:44.248Z,17.10
2023-10-06T01:40:19.744Z,17.10
2023-10-06T01:42:46.880Z,17.10
2023-10-06T01:45:20.404Z,17.10
2023-10-06T01:47:47.677Z,17.10
2023-10-06T01:50:14.691Z,17.10
2023-10-06T01:52:41.782Z,17.10
2023-10-06T01:55:10.482Z,17.10
2023-10-06T01:57:37.506Z,17.20
2023-10-06T02:00:07.896Z,17.20
2023-10-06T02:02:38.788Z,17.20
2023-10-06T02:05:07.931Z,17.20
2023-10-06T02:07:37.023Z,17.20
2023-10-06T02:10:04.918Z,17.20
2023-10-06T02:12:31.810Z,17.20
2023-10-06T02:14:59.433Z,17.20
2023-10-06T02:17:26.435Z,17.20
2023-10-06T02:19:53.489Z,17.20
2023-10-06T02:22:20.580Z,17.20
2023-10-06T02:24:47.510Z,17.10
2023-10-06T02:27:14.455Z,17.00
2023-10-06T02:29:44.745Z,17.10
2023-10-06T02:32:14.282Z,17.10
2023-10-06T02:34:41.684Z,17.00
2023-10-06T02:37:09.553Z,17.00
2023-10-06T02:39:39.380Z,17.00
2023-10-06T02:42:11.126Z,17.00
2023-10-06T02:44:42.906Z,17.10
2023-10-06T02:47:15.216Z,17.00
2023-10-06T02:49:49.054Z,17.00
2023-10-06T02:52:23.010Z,17.00
2023-10-06T02:55:13.531Z,17.00
2023-10-06T02:57:42.865Z,17.00
2023-10-06T03:00:22.219Z,17.00
2023-10-06T03:02:49.390Z,17.00
2023-10-06T03:05:16.448Z,17.00
2023-10-06T03:07:47.199Z,17.00
2023-10-06T03:10:17.420Z,17.00
2023-10-06T03:12:44.874Z,17.00
2023-10-06T03:15:30.508Z,17.00
2023-10-06T03:17:59.610Z,17.00
2023-10-06T03:20:31.105Z,17.00
2023-10-06T03:22:58.184Z,17.00
2023-10-06T03:25:29.115Z,17.00
2023-10-06T03:27:58.876Z,17.00
2023-10-06T03:30:29.984Z,17.00
2023-10-06T03:32:59.167Z,16.90
2023-10-06T03:35:37.354Z,16.80
2023-10-06T03:38:28.418Z,16.80
2023-10-06T03:40:58.616Z,16.80
2023-10-06T03:43:35.461Z,16.90
2023-10-06T03:46:02.559Z,16.80
2023-10-06T03:48:32.788Z,16.80
2023-10-06T03:51:01.131Z,16.90
2023-10-06T03:53:30.947Z,16.90
2023-10-06T03:55:58.737Z,17.00
2023-10-06T03:58:33.280Z,16.90
2023-10-06T04:01:08.581Z,17.00
2023-10-06T04:03:35.732Z,17.00
2023-10-06T04:06:05.569Z,17.00
2023-10-06T04:08:32.539Z,17.00
2023-10-06T04:10:59.559Z,17.00
2023-10-06T04:13:26.690Z,17.00
2023-10-06T04:15:54.063Z,17.00
2023-10-06T04:18:23.369Z,17.00
2023-10-06T04:20:50.970Z,17.00
2023-10-06T04:23:18.464Z,16.90
2023-10-06T04:25:48.731Z,17.00
2023-10-06T04:28:15.955Z,16.90
2023-10-06T04:30:43.538Z,16.90
2023-10-06T04:33:15.237Z,16.90
2023-10-06T04:35:44.359Z,17.00
2023-10-06T04:38:13.764Z,17.00
2023-10-06T04:40:43.768Z,17.00
2023-10-06T04:43:10.986Z,17.00
2023-10-06T04:45:40.131Z,16.90
2023-10-06T04:48:09.341Z,16.90
2023-10-06T04:50:36.479Z,16.80
2023-10-06T04:53:06.870Z,16.80
2023-10-06T04:55:38.820Z,16.80
2023-10-06T04:58:06.575Z,16.80
2023-10-06T05:00:34.472Z,16.80
2023-10-06T05:03:04.637Z,16.90
2023-10-06T05:05:35.356Z,16.90
2023-10-06T05:08:03.566Z,16.90
2023-10-06T05:10:31.617Z,16.90
2023-10-06T05:13:00.037Z,16.90
2023-10-06T05:15:33.146Z,17.00
2023-10-06T05:18:01.336Z,16.90
2023-10-06T05:20:31.738Z,16.90
2023-10-06T05:22:59.892Z,17.00
2023-10-06T05:25:27.464Z,16.90
2023-10-06T05:27:54.588Z,17.00
2023-10-06T05:30:22.409Z,16.90
2023-10-06T05:32:49.640Z,17.00
2023-10-06T05:35:16.803Z,17.00
2023-10-06T05:37:44.541Z,16.90
2023-10-06T05:40:13.368Z,17.00
2023-10-06T05:42:41.609Z,17.00
2023-10-06T05:45:16.773Z,16.90
2023-10-06T05:47:46.337Z,16.90
2023-10-06T05:50:19.694Z,17.00
2023-10-06T05:52:53.065Z,17.00
2023-10-06T05:55:20.762Z,17.00
2023-10-06T05:57:57.001Z,17.00
2023-10-06T06:00:28.288Z,17.00
2023-10-06T06:02:55.790Z,17.00
2023-10-06T06:05:27.372Z,17.00
2023-10-06T06:07:54.767Z,17.00
2023-10-06T06:10:22.475Z,17.00
2023-10-06T06:12:49.408Z,17.10
2023-10-06T06:15:17.898Z,16.90
2023-10-06T06:17:44.883Z,16.80
2023-10-06T06:20:18.558Z,16.90
2023-10-06T06:22:54.828Z,17.10
2023-10-06T06:25:23.040Z,17.30
2023-10-06T06:27:50.573Z,17.50
2023-10-06T06:30:19.878Z,17.70
2023-10-06T06:32:49.652Z,17.80
2023-10-06T06:35:17.507Z,17.80
2023-10-06T06:37:44.509Z,17.90
2023-10-06T06:40:14.272Z,18.10
2023-10-06T06:42:44.461Z,18.20
2023-10-06T06:45:14.731Z,18.30
2023-10-06T06:47:44.945Z,18.30
2023-10-06T06:50:14.554Z,18.40
2023-10-06T06:52:41.758Z,18.40
2023-10-06T06:55:14.692Z,18.40
2023-10-06T06:57:44.328Z,18.50
2023-10-06T07:00:17.622Z,18.50
2023-10-06T07:02:45.343Z,18.40
2023-10-06T07:05:16.357Z,18.30
2023-10-06T07:07:48.151Z,18.30
2023-10-06T07:10:16.999Z,18.30
2023-10-06T07:12:44.280Z,18.20
2023-10-06T07:15:21.411Z,18.20
2023-10-06T07:17:49.547Z,18.00
2023-10-06T07:20:18.114Z,18.00
2023-10-06T07:22:46.575Z,17.80
2023-10-06T07:25:16.861Z,17.80
2023-10-06T07:27:44.978Z,17.80
2023-10-06T07:30:12.634Z,17.70
2023-10-06T07:32:42.258Z,17.70
2023-10-06T07:35:10.210Z,17.60
2023-10-06T07:37:37.528Z,17.70
2023-10-06T07:40:05.399Z,17.60
2023-10-06T07:42:32.916Z,17.70
2023-10-06T07:45:06.179Z,17.70
2023-10-06T07:47:35.375Z,17.70
2023-10-06T07:50:03.177Z,17.70
2023-10-06T07:52:30.415Z,17.80
2023-10-06T07:54:58.098Z,17.80
2023-10-06T07:57:25.044Z,17.80
2023-10-06T07:59:52.481Z,17.80
2023-10-06T08:02:20.141Z,17.80
2023-10-06T08:04:47.273Z,17.90
2023-10-06T08:07:14.367Z,18.00
2023-10-06T08:09:41.345Z,17.90
2023-10-06T08:12:09.528Z,17.90
2023-10-06T08:14:38.319Z,17.80
2023-10-06T08:17:06.564Z,17.90
2023-10-06T08:19:33.546Z,18.00
2023-10-06T08:22:01.344Z,18.10
2023-10-06T08:24:30.124Z,18.20
2023-10-06T08:26:58.300Z,18.30
2023-10-06T08:29:25.298Z,18.50
2023-10-06T08:31:54.294Z,18.60
2023-10-06T08:34:22.868Z,18.50
2023-10-06T08:36:49.776Z,18.40
2023-10-06T08:39:18.110Z,18.40
2023-10-06T08:41:45.953Z,18.30
2023-10-06T08:44:13.930Z,18.40
2023-10-06T08:46:45.606Z,18.50
2023-10-06T08:49:13.020Z,18.50
2023-10-06T08:51:40.100Z,18.60
2023-10-06T08:54:08.039Z,18.70
2023-10-06T08:56:35.277Z,18.80
2023-10-06T08:59:02.232Z,18.90
2023-10-06T09:01:29.272Z,19.00
2023-10-06T09:04:01.948Z,18.90
2023-10-06T09:06:29.046Z,18.90
2023-10-06T09:08:56.727Z,19.00
2023-10-06T09:11:39.570Z,19.00
2023-10-06T09:14:09.284Z,19.00
2023-10-06T09:16:49.881Z,18.90
2023-10-06T09:19:16.945Z,18.80
2023-10-06T09:22:03.537Z,18.80
2023-10-06T09:24:31.900Z,18.80
2023-10-06T09:26:59.498Z,18.80
2023-10-06T09:29:37.522Z,18.80
2023-10-06T09:32:20.846Z,18.50
2023-10-06T09:34:47.974Z,18.40
2023-10-06T09:37:19.153Z,18.30
2023-10-06T09:39:46.485Z,18.40
2023-10-06T09:42:14.280Z,18.30
2023-10-06T09:44:41.679Z,18.20
2023-10-06T09:47:11.832Z,18.10
2023-10-06T09:49:40.159Z,18.10
2023-10-06T09:52:07.137Z,18.20
2023-10-06T09:54:34.111Z,18.30
2023-10-06T09:57:01.316Z,18.30
2023-10-06T09:59:28.334Z,18.20
2023-10-06T10:01:55.567Z,18.30
2023-10-06T10:04:25.317Z,18.40
2023-10-06T10:06:52.700Z,18.50
2023-10-06T10:09:22.222Z,18.60
2023-10-06T10:11:58.553Z,18.60
2023-10-06T10:14:31.703Z,18.70
2023-10-06T10:16:58.934Z,18.80
2023-10-06T10:19:27.586Z,18.90
2023-10-06T10:21:54.841Z,18.90
2023-10-06T10:26:51.709Z,19.00
2023-10-06T10:29:18.803Z,19.00
2023-10-06T10:32:00.170Z,19.00
2023-10-06T10:34:35.167Z,19.00
2023-10-06T10:37:07.313Z,19.00
2023-10-06T10:40:01.005Z,19.00
2023-10-06T10:42:40.478Z,19.00
2023-10-06T10:45:26.128Z,18.90
2023-10-06T10:47:53.870Z,18.80
2023-10-06T10:50:21.278Z,18.70
2023-10-06T10:52:48.301Z,18.70
2023-10-06T10:55:17.670Z,18.70
2023-10-06T10:57:45.866Z,18.70
2023-10-06T11:00:14.951Z,18.80
2023-10-06T11:02:42.572Z,18.80
2023-10-06T11:05:11.084Z,18.90
2023-10-06T11:07:38.149Z,19.00
2023-10-06T11:10:05.321Z,18.90
2023-10-06T11:12:32.767Z,18.90
2023-10-06T11:15:21.564Z,18.80
2023-10-06T11:17:48.603Z,18.90
2023-10-06T11:20:23.729Z,18.90
2023-10-06T11:23:00.855Z,18.90
2023-10-06T11:25:28.964Z,18.90
2023-10-06T11:28:03.655Z,18.80
2023-10-06T11:30:36.872Z,18.80
2023-10-06T11:33:05.127Z,18.90
2023-10-06T11:35:32.606Z,19.00
2023-10-06T11:38:00.592Z,19.10
2023-10-06T11:40:27.571Z,19.10
2023-10-06T11:42:55.091Z,19.10
2023-10-06T11:45:26.032Z,19.20
2023-10-06T11:47:53.306Z,19.20
2023-10-06T11:50:25.453Z,19.10
2023-10-06T11:52:52.661Z,19.10
2023-10-06T11:55:23.131Z,19.10
2023-10-06T11:57:54.768Z,19.10
2023-10-06T12:00:38.251Z,19.20
2023-10-06T12:03:05.457Z,19.20
2023-10-06T12:05:32.754Z,19.20
2023-10-06T12:08:05.904Z,19.20
2023-10-06T12:10:33.940Z,19.20
2023-10-06T12:13:01.129Z,19.20
2023-10-06T12:15:30.896Z,19.20
2023-10-06T12:17:58.342Z,19.30
2023-10-06T12:20:25.894Z,19.30
2023-10-06T12:22:53.579Z,19.30
2023-10-06T12:25:24.283Z,19.30
2023-10-06T12:27:51.406Z,19.30
2023-10-06T12:30:18.716Z,19.20
2023-10-06T12:32:48.727Z,19.20
2023-10-06T12:35:19.987Z,19.20
2023-10-06T12:37:47.279Z,19.20
2023-10-06T12:40:15.602Z,19.10
2023-10-06T12:42:43.924Z,19.10
2023-10-06T12:45:14.341Z,19.00
2023-10-06T12:47:41.691Z,19.00
2023-10-06T12:50:09.798Z,19.00
2023-10-06T12:52:38.277Z,19.00
2023-10-06T12:55:14.512Z,19.10
2023-10-06T12:57:41.972Z,19.10
2023-10-06T13:00:09.247Z,19.10
2023-10-06T13:02:36.771Z,19.10
2023-10-06T13:05:24.785Z,19.20
2023-10-06T13:07:52.744Z,19.10
2023-10-06T13:10:23.554Z,19.10
2023-10-06T13:12:50.884Z,19.10
2023-10-06T13:15:18.860Z,19.10
2023-10-06T13:17:50.541Z,19.10
2023-10-06T13:20:17.670Z,19.10
2023-10-06T13:22:45.247Z,19.00
2023-10-06T13:25:12.482Z,19.10
2023-10-06T13:27:42.859Z,19.00
2023-10-06T13:30:16.196Z,19.00
2023-10-06T13:32:43.924Z,19.00
2023-10-06T13:35:17.524Z,19.00
2023-10-06T13:37:45.296Z,19.00
2023-10-06T13:40:12.973Z,19.00
2023-10-06T13:42:47.694Z,19.00
2023-10-06T13:45:23.460Z,19.00
2023-10-06T13:47:53.885Z,19.00
2023-10-06T13:50:21.797Z,19.00
2023-10-06T13:52:50.697Z,18.90
2023-10-06T13:55:18.103Z,18.90
2023-10-06T13:57:45.442Z,18.90
2023-10-06T14:00:15.971Z,18.90
2023-10-06T14:02:43.454Z,18.80
2023-10-06T14:05:13.072Z,18.80
2023-10-06T14:07:41.368Z,18.80
2023-10-06T14:10:14.117Z,18.80
2023-10-06T14:12:44.335Z,18.80
2023-10-06T14:15:31.554Z,18.80
2023-10-06T14:18:00.327Z,18.80
2023-10-06T14:20:31.164Z,18.80
2023-10-06T14:22:58.692Z,18.80
2023-10-06T14:25:30.964Z,18.80
2023-10-06T14:27:58.959Z,18.90
2023-10-06T14:30:26.869Z,18.90
2023-10-06T14:33:12.359Z,18.90
2023-10-06T14:36:11.788Z,18.90
2023-10-06T14:38:44.847Z,18.90
2023-10-06T14:41:30.897Z,18.80
2023-10-06T14:44:20.267Z,18.90
2023-10-06T14:46:51.639Z,18.80
2023-10-06T14:49:29.245Z,18.70
2023-10-06T14:51:57.603Z,18.70
2023-10-06T14:54:27.250Z,18.70
2023-10-06T14:56:55.928Z,18.70
2023-10-06T14:59:23.719Z,18.70
2023-10-06T15:01:52.762Z,18.60
2023-10-06T15:04:20.092Z,18.60
2023-10-06T15:06:47.275Z,18.50
2023-10-06T15:09:20.160Z,18.50
2023-10-06T15:11:51.548Z,18.50
2023-10-06T15:14:26.466Z,18.50
2023-10-06T15:16:54.667Z,18.50
2023-10-06T15:19:26.165Z,18.50
2023-10-06T15:21:53.950Z,18.50
2023-10-06T15:24:21.131Z,18.50
2023-10-06T15:26:49.375Z,18.40
2023-10-06T15:29:20.999Z,18.40
2023-10-06T15:31:49.649Z,18.30
2023-10-06T15:34:17.120Z,18.30
2023-10-06T15:36:44.397Z,18.30
2023-10-06T15:39:18.829Z,18.30
2023-10-06T15:41:46.742Z,18.30
2023-10-06T15:44:14.204Z,18.20
2023-10-06T15:46:42.248Z,18.20
2023-10-06T15:49:14.888Z,18.20
2023-10-06T15:51:44.497Z,18.20
2023-10-06T15:54:11.643Z,18.10
2023-10-06T15:56:41.849Z,18.10
2023-10-06T15:59:18.897Z,18.00
2023-10-06T16:01:48.473Z,18.00
2023-10-06T16:07:03.304Z,18.10
2023-10-06T16:09:30.296Z,18.00
2023-10-06T16:12:05.410Z,18.00
2023-10-06T16:14:32.523Z,18.00
2023-10-06T16:16:59.642Z,18.00
2023-10-06T16:19:26.878Z,18.00
2023-10-06T16:21:56.022Z,18.00
2023-10-06T16:24:23.133Z,18.00
2023-10-06T16:26:50.273Z,18.00
2023-10-06T16:29:17.616Z,18.00
2023-10-06T16:31:44.879Z,17.90
2023-10-06T16:34:12.009Z,17.90
2023-10-06T16:36:40.345Z,17.90
2023-10-06T16:39:18.075Z,17.90
2023-10-06T16:41:46.935Z,17.90
2023-10-06T16:44:14.522Z,17.80
2023-10-06T16:46:41.980Z,17.80
2023-10-06T16:49:09.450Z,17.80
2023-10-06T16:51:36.768Z,17.80
2023-10-06T16:54:04.103Z,17.70
2023-10-06T16:56:31.223Z,17.60
2023-10-06T16:58:58.325Z,17.60
2023-10-06T17:01:25.381Z,17.60
2023-10-06T17:03:53.607Z,17.60
2023-10-06T17:06:20.777Z,17.60
2023-10-06T17:08:47.746Z,17.50
2023-10-06T17:11:17.944Z,17.50
2023-10-06T17:13:49.573Z,17.50
2023-10-06T17:16:16.622Z,17.30
2023-10-06T17:18:43.773Z,17.20
2023-10-06T17:21:14.180Z,17.30
2023-10-06T17:23:41.482Z,17.30
2023-10-06T17:26:10.128Z,17.30
2023-10-06T17:28:37.458Z,17.20
2023-10-06T17:31:04.659Z,17.20
2023-10-06T17:33:31.857Z,17.20
2023-10-06T17:35:59.074Z,17.30
2023-10-06T17:38:26.224Z,17.20
2023-10-06T17:40:57.184Z,17.20
2023-10-06T17:43:24.728Z,17.20
2023-10-06T17:45:52.644Z,17.20
2023-10-06T17:48:20.040Z,17.20
2023-10-06T17:50:50.280Z,17.10
2023-10-06T17:53:17.275Z,17.10
2023-10-06T17:55:57.518Z,17.10
2023-10-06T17:58:24.871Z,17.20
2023-10-06T18:00:52.082Z,17.20
2023-10-06T18:03:19.447Z,17.20
2023-10-06T18:05:49.617Z,17.30
2023-10-06T18:08:19.725Z,17.30
2023-10-06T18:10:48.719Z,17.30
2023-10-06T18:13:16.056Z,17.30
2023-10-06T18:15:43.228Z,17.30
2023-10-06T18:18:11.905Z,17.30
2023-10-06T18:20:43.862Z,17.30
2023-10-06T18:23:11.668Z,17.30
2023-10-06T18:25:38.981Z,17.30
2023-10-06T18:28:06.410Z,17.30
2023-10-06T18:30:33.824Z,17.40
2023-10-06T18:33:01.331Z,17.30
2023-10-06T18:35:29.898Z,17.40
2023-10-06T18:37:56.978Z,17.30
2023-10-06T18:40:24.289Z,17.30
2023-10-06T18:42:51.352Z,17.40
2023-10-06T18:45:18.618Z,17.40
2023-10-06T18:47:45.720Z,17.40
2023-10-06T18:50:22.695Z,17.40
2023-10-06T18:52:50.205Z,17.30
2023-10-06T18:55:19.124Z,17.30
2023-10-06T18:57:46.516Z,17.30
2023-10-06T19:00:13.869Z,17.40
2023-10-06T19:02:41.509Z,17.40
2023-10-06T19:05:17.789Z,17.40
2023-10-06T19:07:44.853Z,17.40
2023-10-06T19:10:15.146Z,17.40
2023-10-06T19:12:42.891Z,17.40
2023-10-06T19:15:10.035Z,17.30
2023-10-06T19:17:40.111Z,17.30
2023-10-06T19:20:10.158Z,17.30
2023-10-06T19:22:39.078Z,17.30
2023-10-06T19:25:10.237Z,17.30
2023-10-06T19:27:37.346Z,17.20
2023-10-06T19:30:06.164Z,17.20
2023-10-06T19:32:34.953Z,17.20
2023-10-06T19:35:08.218Z,17.20
2023-10-06T19:37:35.618Z,17.10
2023-10-06T19:40:09.717Z,17.20
2023-10-06T19:42:37.364Z,17.20
2023-10-06T19:45:06.205Z,17.10
2023-10-06T19:47:33.475Z,17.10
2023-10-06T19:50:02.988Z,17.00
2023-10-06T19:52:30.052Z,17.10
2023-10-06T19:54:57.146Z,17.00
2023-10-06T19:57:24.105Z,17.00
2023-10-06T19:59:51.339Z,17.00
2023-10-06T20:02:18.338Z,17.00
2023-10-06T20:04:46.558Z,17.00
2023-10-06T20:07:13.906Z,17.00
2023-10-06T20:09:41.366Z,17.00
2023-10-06T20:12:08.587Z,16.90
2023-10-06T20:14:36.691Z,17.00
2023-10-06T20:17:05.334Z,17.00
2023-10-06T20:19:33.563Z,17.00
2023-10-06T20:22:00.624Z,16.90
2023-10-06T20:24:27.714Z,17.00
2023-10-06T20:26:54.868Z,17.00
2023-10-06T20:29:21.942Z,17.00
2023-10-06T20:31:49.113Z,17.00
2023-10-06T20:34:17.248Z,17.00
2023-10-06T20:36:55.983Z,17.00
2023-10-06T20:39:23.539Z,17.00
2023-10-06T20:41:53.687Z,17.00
2023-10-06T20:44:21.365Z,17.00
2023-10-06T20:46:48.579Z,17.00
2023-10-06T20:49:15.655Z,17.00
2023-10-06T20:51:42.906Z,17.00
2023-10-06T20:54:10.115Z,17.00
2023-10-06T20:56:39.022Z,17.00
2023-10-06T20:59:09.760Z,16.90
2023-10-06T21:01:37.359Z,16.90
2023-10-06T21:04:07.437Z,16.90
2023-10-06T21:06:35.992Z,16.90
2023-10-06T21:09:05.876Z,16.90
2023-10-06T21:11:35.178Z,16.90
2023-10-06T21:14:02.430Z,17.00
2023-10-06T21:16:29.676Z,16.90
2023-10-06T21:18:58.068Z,16.90
2023-10-06T21:21:25.151Z,16.90
2023-10-06T21:23:52.225Z,16.90
2023-10-06T21:26:19.244Z,16.90
2023-10-06T21:28:46.296Z,16.90
2023-10-06T21:31:16.424Z,16.90
2023-10-06T21:33:43.532Z,16.90
2023-10-06T21:36:10.620Z,16.90
2023-10-06T21:38:40.215Z,16.80
2023-10-06T21:41:07.406Z,16.80
2023-10-06T21:43:34.528Z,16.80
2023-10-06T21:46:04.816Z,16.80
2023-10-06T21:48:34.158Z,16.80
2023-10-06T21:51:01.379Z,16.80
2023-10-06T21:53:28.383Z,16.80
2023-10-06T21:55:55.389Z,16.70
2023-10-06T21:58:22.591Z,16.80
2023-10-06T22:00:56.800Z,16.80
2023-10-06T22:03:24.448Z,16.70
2023-10-06T22:05:51.582Z,16.70
2023-10-06T22:08:18.663Z,16.70
2023-10-06T22:10:45.826Z,16.70
2023-10-06T22:13:13.473Z,16.70
2023-10-06T22:15:40.851Z,16.70
2023-10-06T22:18:08.205Z,16.70
2023-10-06T22:20:36.022Z,16.80
2023-10-06T22:23:03.084Z,16.80
2023-10-06T22:25:30.217Z,16.80
2023-10-06T22:27:57.367Z,16.80
2023-10-06T22:30:24.617Z,16.80
2023-10-06T22:32:51.967Z,16.70
2023-10-06T22:35:19.048Z,16.60
2023-10-06T22:37:47.099Z,16.60
2023-10-06T22:40:18.345Z,16.50
2023-10-06T22:42:48.647Z,16.50
2023-10-06T22:45:17.084Z,16.50
2023-10-06T22:47:44.480Z,16.50
2023-10-06T22:50:13.013Z,16.60
2023-10-06T22:52:41.659Z,16.70
2023-10-06T22:55:10.058Z,16.70
2023-10-06T22:57:37.109Z,16.70
2023-10-06T23:00:09.931Z,16.70
2023-10-06T23:02:38.337Z,16.70
2023-10-06T23:05:06.980Z,16.70
2023-10-06T23:07:34.241Z,16.60
2023-10-06T23:10:02.098Z,16.60
2023-10-06T23:12:29.320Z,16.60
2023-10-06T23:14:57.246Z,16.50
2023-10-06T23:17:24.713Z,16.50
2023-10-06T23:19:59.943Z,16.50
2023-10-06T23:22:27.101Z,16.50
2023-10-06T23:24:54.864Z,16.50
2023-10-06T23:27:21.932Z,16.50
2023-10-06T23:29:49.638Z,16.60
2023-10-06T23:32:16.751Z,16.50
2023-10-06T23:34:43.813Z,16.50
2023-10-06T23:37:13.466Z,16.50
2023-10-06T23:39:41.099Z,16.50
2023-10-06T23:42:10.417Z,16.40
2023-10-06T23:44:39.350Z,16.30
2023-10-06T23:47:11.320Z,16.20
2023-10-06T23:49:41.114Z,16.30
2023-10-06T23:52:08.710Z,16.30
2023-10-06T23:54:35.681Z,16.30
2023-10-06T23:57:02.812Z,16.20
2023-10-06T23:59:29.748Z,16.20
